Condiții Actuale
Ceață
Densă



Presiune
1001,92 (hPa) - 29,59 (inHG)
Vizibilitate

4.0 (km) - 2.5 (mile)
   Temperatura
3  °C
Temperatura
3  °C
Pct. Rouă
100  %
 Umiditate
   Viteza Vântului
3  kts
3  mph
5  km/h
1.3  m/s
   Direcția Vântului
N
45°
E
90°
135°
S
180°
225°
V
270°
315°
 30°

Nord Nord
Est
   Date Aeroport
LROP
Aeroportul Internațional Henri Coandă
Metar :LROP 280230Z 03003KT 4000 BR NSC 03/03 Q1002 TEMPO 1500 BR
Dum 28 Noiembrie 04:30 am
  Informații despre METAR
METAR este cel mai comun format din lume pentru transmiterea datelor și observațiilor meteo. Este standardizat de Organizația Internațională de Aviație Civilă (ICAO), ceea ce îl face sa fie ușur de înțeles peste tot în lume.
   Informații despre API
Date Furnizate de
https://www.checkwx.com/weather/LROP

Meteorologie de Aviație, furnizor de rapoarte meteo METAR, TAF, AIRMET, SIGMET și OUTLOOK
   © Info
Scripturi SVG/PHP dezvoltate de weather34.com pentru folosire în template-ul weather34 © 2015-2021

Ghid Informativ furnizat de Metar-Wikipedia